Time;durP1;ratioP1;P1;durP2;ratioP2;P2;SDS_P1;SDS_P2;PMS_P1;PMS_P2;Temp;Humidity;BMP_temperature;BMP_pressure;BME280_temperature;BME280_humidity;BME280_pressure;Samples;Min_cycle;Max_cycle;Signal;HPM_P1;HPM_P2
2020/12/21 00:00:27;;;;;;;101.18;67.87;;;;;;;2.40;78.75;101013.96;3005338;79;21137;-66
2020/12/21 00:04:34;;;;;;;120.77;72.97;;;;;;;2.28;78.34;101013.95;3005606;77;21594;-65
2020/12/21 00:08:38;;;;;;;112.62;74.75;;;;;;;2.21;77.81;101007.66;3011446;77;21102;-68
2020/12/21 00:12:44;;;;;;;132.10;84.72;;;;;;;2.10;77.44;101008.88;3058690;77;21133;-65
2020/12/21 00:16:51;;;;;;;161.12;92.42;;;;;;;1.95;76.72;101020.77;3059953;77;21121;-63
2020/12/21 00:20:57;;;;;;;141.07;88.30;;;;;;;1.69;76.33;101029.06;3059624;77;21148;-63
2020/12/21 00:25:00;;;;;;;153.87;100.50;;;;;;;1.49;76.43;101034.94;3014786;77;21438;-63
2020/12/21 00:29:05;;;;;;;152.25;95.03;;;;;;;1.37;77.02;101031.38;3008409;77;21165;-63
2020/12/21 00:33:08;;;;;;;163.82;94.47;;;;;;;1.30;77.52;101041.66;3007496;77;21141;-63
2020/12/21 00:37:12;;;;;;;137.47;90.67;;;;;;;1.23;77.62;101042.30;3010723;79;21184;-63
2020/12/21 00:41:20;;;;;;;136.12;84.62;;;;;;;1.18;77.87;101042.91;3012247;79;21137;-62
2020/12/21 00:45:23;;;;;;;160.22;89.72;;;;;;;1.12;77.73;101050.49;3010518;79;21117;-62
2020/12/21 00:49:27;;;;;;;179.50;102.15;;;;;;;1.06;78.28;101062.48;3010195;78;21137;-63
2020/12/21 00:53:31;;;;;;;165.85;103.22;;;;;;;1.00;78.66;101053.03;3010176;79;21539;-64
2020/12/21 00:57:34;;;;;;;152.38;98.65;;;;;;;1.01;79.02;101063.92;3010208;78;21161;-64
2020/12/21 01:01:40;;;;;;;167.22;113.60;;;;;;;1.03;79.13;101065.20;3010422;79;21167;-65
2020/12/21 01:05:43;;;;;;;183.35;108.35;;;;;;;1.02;79.96;101068.72;3010306;79;21141;-65
2020/12/21 01:10:09;;;;;;;198.32;122.10;;;;;;;1.05;80.23;101073.86;3010149;79;21559;-64
2020/12/21 01:14:12;;;;;;;186.05;116.73;;;;;;;1.12;81.21;101074.95;2785804;85;21183;-62
2020/12/21 01:18:15;;;;;;;176.18;111.03;;;;;;;1.28;81.72;101074.50;2779126;85;21155;-64
2020/12/21 01:22:19;;;;;;;181.80;118.25;;;;;;;1.34;81.25;101074.30;2781430;85;21187;-62
2020/12/21 01:26:24;;;;;;;190.62;112.30;;;;;;;1.46;82.58;101077.43;2825310;84;21163;-62
2020/12/21 01:30:27;;;;;;;166.68;114.42;;;;;;;1.58;82.53;101069.19;2825556;84;21200;-63
2020/12/21 01:34:31;;;;;;;184.05;115.15;;;;;;;1.78;82.72;101065.94;2816553;82;21146;-62
2020/12/21 01:38:35;;;;;;;188.62;120.25;;;;;;;1.94;82.58;101068.91;2815323;84;21470;-62
2020/12/21 01:42:40;;;;;;;180.22;112.97;;;;;;;2.04;82.41;101070.77;2814963;84;21162;-62
2020/12/21 01:46:43;;;;;;;169.97;109.65;;;;;;;2.13;82.36;101067.82;2818146;84;21162;-62
2020/12/21 01:50:47;;;;;;;157.37;102.15;;;;;;;2.31;82.78;101064.16;2816557;84;21142;-63
2020/12/21 01:54:52;;;;;;;175.87;104.43;;;;;;;2.43;81.93;101067.69;2816330;84;21173;-63
2020/12/21 01:58:55;;;;;;;181.65;117.45;;;;;;;2.51;82.42;101059.98;2817982;84;21169;-64
2020/12/21 02:02:59;;;;;;;161.37;103.62;;;;;;;2.78;82.78;101068.63;2819014;84;21206;-63
2020/12/21 02:07:05;;;;;;;134.25;96.72;;;;;;;2.91;82.02;101069.03;2818851;84;21619;-63
2020/12/21 02:11:09;;;;;;;157.75;102.53;;;;;;;2.96;80.98;101058.35;2817367;84;21800;-64
2020/12/21 02:15:13;;;;;;;157.82;99.03;;;;;;;2.91;81.43;101054.58;2815463;84;21176;-62
2020/12/21 02:19:21;;;;;;;144.70;89.58;;;;;;;2.91;81.07;101059.83;2815449;84;21164;-63
2020/12/21 02:23:24;;;;;;;155.85;93.82;;;;;;;2.77;80.92;101054.25;2815708;84;21152;-62
2020/12/21 02:27:28;;;;;;;151.20;94.85;;;;;;;2.64;81.35;101053.82;2815553;84;21485;-63
2020/12/21 02:31:31;;;;;;;157.40;103.35;;;;;;;2.47;81.91;101047.88;2815418;83;21218;-66
2020/12/21 02:35:35;;;;;;;162.60;97.12;;;;;;;2.48;82.42;101046.95;2815696;84;21172;-65
2020/12/21 02:39:40;;;;;;;159.52;98.30;;;;;;;2.49;82.42;101052.17;2815655;84;21155;-66
2020/12/21 02:43:45;;;;;;;160.37;97.78;;;;;;;2.52;82.74;101049.87;2795876;84;21191;-66
2020/12/21 02:47:48;;;;;;;136.15;92.10;;;;;;;2.52;82.48;101050.74;2764043;84;21167;-65
2020/12/21 02:51:53;;;;;;;154.27;94.70;;;;;;;2.52;82.95;101052.50;2809161;84;21128;-66
2020/12/21 02:55:56;;;;;;;160.22;94.40;;;;;;;2.63;83.13;101046.41;2808915;84;21152;-64
2020/12/21 03:00:01;;;;;;;136.95;88.42;;;;;;;2.62;83.20;101047.77;2808932;84;21725;-65
2020/12/21 03:04:06;;;;;;;122.45;82.00;;;;;;;2.65;83.78;101043.27;2809020;84;21164;-65
2020/12/21 03:08:11;;;;;;;127.27;78.92;;;;;;;2.77;84.35;101042.43;2808905;84;21180;-63
2020/12/21 03:12:14;;;;;;;106.40;71.60;;;;;;;2.99;84.14;101053.84;2808890;84;21796;-62
2020/12/21 03:16:18;;;;;;;110.68;74.42;;;;;;;3.06;83.50;101051.84;2808878;84;21172;-63
2020/12/21 03:20:21;;;;;;;113.40;71.25;;;;;;;3.08;83.47;101047.83;2808999;84;21196;-63
2020/12/21 03:24:24;;;;;;;107.35;68.00;;;;;;;3.18;83.89;101041.31;2808948;84;21579;-62
2020/12/21 03:28:27;;;;;;;92.12;60.65;;;;;;;3.30;83.43;101037.34;2808813;84;21176;-64
2020/12/21 03:32:31;;;;;;;97.57;65.60;;;;;;;3.36;82.99;101038.88;2808970;83;21172;-64
2020/12/21 03:36:34;;;;;;;87.82;55.95;;;;;;;3.37;83.11;101035.33;2808817;84;21606;-63
2020/12/21 03:40:37;;;;;;;80.28;51.05;;;;;;;3.37;83.12;101032.23;2808900;84;21129;-63
2020/12/21 03:44:40;;;;;;;91.55;61.23;;;;;;;3.45;83.23;101027.98;2809113;84;21157;-64
2020/12/21 03:48:43;;;;;;;100.45;70.85;;;;;;;3.53;83.40;101021.94;2808754;84;21148;-62
2020/12/21 03:52:50;;;;;;;94.03;56.23;;;;;;;3.68;83.16;101016.97;2808592;84;21196;-66
2020/12/21 03:56:54;;;;;;;73.83;50.28;;;;;;;3.65;82.56;101016.66;2813958;83;21655;-64
2020/12/21 04:01:00;;;;;;;67.53;39.75;;;;;;;3.62;83.08;101011.97;2816601;83;21146;-65
2020/12/21 04:05:07;;;;;;;60.67;39.03;;;;;;;3.64;83.19;101012.77;2814084;83;21180;-65
2020/12/21 04:09:11;;;;;;;49.90;34.33;;;;;;;3.70;83.24;101017.77;2815412;84;21165;-64
2020/12/21 04:13:15;;;;;;;37.67;27.73;;;;;;;3.78;83.40;101020.95;2805833;84;21173;-64
2020/12/21 04:17:20;;;;;;;47.65;31.05;;;;;;;3.86;83.43;101017.52;2765981;85;21162;-64
2020/12/21 04:21:23;;;;;;;46.85;32.48;;;;;;;4.00;83.55;101022.67;2769372;85;21154;-63
2020/12/21 04:25:27;;;;;;;44.67;36.25;;;;;;;4.16;83.78;101021.55;2740793;86;21125;-65
2020/12/21 04:29:33;;;;;;;42.55;26.68;;;;;;;4.37;84.00;101024.16;2769698;86;21162;-63
2020/12/21 04:33:38;;;;;;;31.25;21.73;;;;;;;4.63;83.93;101024.33;2769791;85;21154;-64
2020/12/21 04:37:41;;;;;;;19.42;12.18;;;;;;;4.76;82.91;101016.70;2769684;86;21165;-63
2020/12/21 04:41:59;;;;;;;11.78;8.00;;;;;;;4.80;82.65;101014.31;2769841;86;21138;-65
2020/12/21 04:46:06;;;;;;;11.43;8.03;;;;;;;4.92;82.79;101019.52;2769836;86;21603;-63
2020/12/21 04:50:16;;;;;;;8.28;7.12;;;;;;;5.04;82.72;101014.58;2769739;85;21161;-63
2020/12/21 04:54:20;;;;;;;9.38;7.70;;;;;;;5.17;82.66;101015.72;2770181;86;21173;-62
2020/12/21 04:58:23;;;;;;;12.47;9.20;;;;;;;5.31;82.21;101020.81;2770313;86;21168;-64
2020/12/21 05:02:27;;;;;;;9.15;6.87;;;;;;;5.39;82.08;101019.96;2770188;86;21117;-63
2020/12/21 05:06:30;;;;;;;8.75;7.30;;;;;;;5.49;81.56;101028.28;2769935;86;21455;-64
2020/12/21 05:10:36;;;;;;;10.72;7.42;;;;;;;5.52;81.56;101025.05;2770083;86;21185;-62
2020/12/21 05:14:39;;;;;;;9.18;6.70;;;;;;;5.55;81.07;101025.34;2792697;83;21162;-64
2020/12/21 05:18:43;;;;;;;9.00;7.50;;;;;;;5.53;80.91;101032.48;2771124;85;21141;-65
2020/12/21 05:22:52;;;;;;;12.43;8.38;;;;;;;5.52;80.87;101029.00;2776361;85;21615;-63
2020/12/21 05:26:55;;;;;;;9.48;6.87;;;;;;;5.51;80.74;101028.61;2770708;85;21173;-64
2020/12/21 05:31:08;;;;;;;10.98;7.85;;;;;;;5.49;80.68;101027.80;2770462;84;21209;-64
2020/12/21 05:35:14;;;;;;;7.58;6.15;;;;;;;5.52;80.79;101036.05;2798306;85;21156;-62
2020/12/21 05:39:18;;;;;;;9.05;6.62;;;;;;;5.51;80.76;101029.94;2754410;85;21181;-63
2020/12/21 05:43:27;;;;;;;10.53;9.05;;;;;;;5.56;80.77;101037.60;2770179;85;21197;-62
2020/12/21 05:47:31;;;;;;;11.22;8.08;;;;;;;5.57;80.68;101040.18;2770279;85;21146;-62
2020/12/21 05:51:39;;;;;;;11.03;7.20;;;;;;;5.61;80.45;101038.70;2798072;85;21121;-61
2020/12/21 05:55:43;;;;;;;10.25;7.62;;;;;;;5.63;80.44;101042.98;2769796;86;21178;-63
2020/12/21 05:59:49;;;;;;;11.43;8.15;;;;;;;5.64;80.43;101058.34;2797999;85;21618;-62
2020/12/21 06:04:01;;;;;;;11.45;7.05;;;;;;;5.61;80.64;101061.14;2770240;85;21169;-62
2020/12/21 06:08:10;;;;;;;44.48;25.10;;;;;;;5.62;80.83;101064.17;2767280;84;21448;-63
2020/12/21 06:12:14;;;;;;;106.25;68.78;;;;;;;5.63;80.11;101075.98;2774795;82;21180;-63
2020/12/21 06:16:18;;;;;;;114.37;74.90;;;;;;;5.46;78.78;101065.39;2793521;84;21164;-61
2020/12/21 06:20:22;;;;;;;123.82;77.53;;;;;;;5.41;78.79;101069.55;2815463;84;21192;-61
2020/12/21 06:24:27;;;;;;;122.62;80.60;;;;;;;5.38;78.40;101072.34;2815742;84;21176;-61
2020/12/21 06:28:30;;;;;;;115.80;73.50;;;;;;;5.25;77.88;101076.87;2816540;83;21626;-61
2020/12/21 06:32:36;;;;;;;111.72;72.97;;;;;;;5.17;78.01;101081.66;2816977;83;21167;-61
2020/12/21 06:36:41;;;;;;;130.32;77.30;;;;;;;5.04;78.10;101074.78;2816925;84;21140;-62
2020/12/21 06:40:44;;;;;;;109.20;72.08;;;;;;;5.03;78.66;101074.84;2815743;84;21200;-62
2020/12/21 06:44:47;;;;;;;114.20;71.87;;;;;;;5.02;79.74;101077.09;2817466;84;21144;-61
2020/12/21 06:49:12;;;;;;;110.03;70.35;;;;;;;5.17;80.35;101073.75;2808744;83;21135;-63
2020/12/21 06:53:16;;;;;;;139.50;82.55;;;;;;;5.32;79.63;101084.52;2769136;86;21571;-61
2020/12/21 06:57:22;;;;;;;110.92;65.97;;;;;;;5.32;79.59;101084.52;2769337;86;21179;-62
2020/12/21 07:01:28;;;;;;;121.53;80.57;;;;;;;5.44;80.08;101082.59;2768923;85;21132;-61
2020/12/21 07:05:31;;;;;;;103.47;78.35;;;;;;;5.54;79.58;101087.84;2769129;86;21144;-62
2020/12/21 07:09:38;;;;;;;94.52;61.50;;;;;;;5.46;78.48;101078.09;2768971;86;21180;-61
2020/12/21 07:13:41;;;;;;;98.87;66.53;;;;;;;5.24;78.99;101077.80;2769770;85;21189;-63
2020/12/21 07:17:44;;;;;;;134.37;77.72;;;;;;;5.09;79.80;101082.45;2771270;85;21118;-62
2020/12/21 07:21:48;;;;;;;86.87;59.38;;;;;;;5.04;80.72;101084.02;2776361;83;21150;-61
2020/12/21 07:25:54;;;;;;;84.15;53.58;;;;;;;5.12;81.10;101087.62;2749686;86;21141;-63
2020/12/21 07:30:08;;;;;;;46.60;30.70;;;;;;;5.18;81.42;101087.77;2749466;86;21614;-62
2020/12/21 07:34:12;;;;;;;31.40;21.23;;;;;;;5.29;81.79;101078.42;2743144;85;21178;-62
2020/12/21 07:38:15;;;;;;;17.80;12.40;;;;;;;5.41;82.17;101063.83;2749425;85;21224;-62
2020/12/21 07:42:20;;;;;;;24.98;18.62;;;;;;;5.57;82.10;101062.61;2749233;86;21203;-65
2020/12/21 07:46:29;;;;;;;23.45;17.12;;;;;;;5.74;82.14;101070.19;2749539;86;21172;-63
2020/12/21 07:50:34;;;;;;;9.28;8.05;;;;;;;5.89;81.71;101072.97;2789535;85;21169;-63
2020/12/21 07:54:44;;;;;;;14.03;8.15;;;;;;;6.00;81.67;101083.42;2790606;85;21136;-62
2020/12/21 07:58:50;;;;;;;12.18;9.00;;;;;;;6.16;81.29;101087.10;2790742;84;21165;-62
2020/12/21 08:02:58;;;;;;;13.85;7.70;;;;;;;6.25;80.90;101088.81;2790697;85;21148;-62
2020/12/21 08:07:10;;;;;;;10.48;8.45;;;;;;;6.31;80.56;101087.65;2790656;85;21161;-61
2020/12/21 08:11:17;;;;;;;10.80;8.63;;;;;;;6.35;80.07;101079.95;2790494;85;21571;-62
2020/12/21 08:15:20;;;;;;;10.72;6.30;;;;;;;6.40;79.67;101079.72;2815489;83;21205;-62
2020/12/21 08:19:24;;;;;;;10.55;8.68;;;;;;;6.39;79.41;101080.17;2777260;85;21193;-62
2020/12/21 08:23:30;;;;;;;20.23;8.63;;;;;;;6.41;79.27;101078.30;2795248;84;21164;-64
2020/12/21 08:27:34;;;;;;;11.60;8.40;;;;;;;6.46;79.55;101075.42;2795831;84;21603;-63
2020/12/21 08:31:45;;;;;;;9.75;7.28;;;;;;;6.51;79.39;101072.55;2799345;83;21382;-62
2020/12/21 08:35:48;;;;;;;10.85;9.38;;;;;;;6.63;79.39;101073.20;2762479;86;21200;-62
2020/12/21 08:39:54;;;;;;;12.20;7.00;;;;;;;6.75;79.43;101080.12;2808411;84;21630;-62
2020/12/21 08:44:00;;;;;;;9.05;7.55;;;;;;;6.82;79.07;101079.72;2812885;83;21145;-61
2020/12/21 08:48:04;;;;;;;10.78;7.28;;;;;;;6.89;78.67;101092.14;2812540;84;21120;-62
2020/12/21 08:52:09;;;;;;;15.70;10.75;;;;;;;6.94;78.14;101088.78;2813263;84;21125;-61
2020/12/21 08:56:14;;;;;;;12.07;9.18;;;;;;;6.94;77.98;101090.09;2812775;83;21626;-62
2020/12/21 09:00:18;;;;;;;13.35;8.73;;;;;;;6.90;78.02;101097.82;2813043;83;21136;-63
2020/12/21 09:04:21;;;;;;;12.88;7.97;;;;;;;6.92;78.09;101097.72;2812857;83;21172;-63
2020/12/21 09:08:25;;;;;;;13.72;9.58;;;;;;;6.98;78.30;101100.89;2811312;84;21189;-62
2020/12/21 09:12:29;;;;;;;7.60;6.40;;;;;;;7.03;77.87;101095.81;2812147;83;21164;-62
2020/12/21 09:16:33;;;;;;;9.03;6.87;;;;;;;7.05;77.76;101093.48;2818620;83;21188;-63
2020/12/21 09:20:36;;;;;;;9.75;7.45;;;;;;;7.10;77.87;101096.73;2818225;83;21168;-64
2020/12/21 09:24:41;;;;;;;9.08;5.53;;;;;;;7.18;78.33;101104.25;2796281;84;21140;-63
2020/12/21 09:28:46;;;;;;;9.50;7.03;;;;;;;7.28;78.24;101105.47;2817944;84;21164;-63
2020/12/21 09:32:51;;;;;;;16.97;8.80;;;;;;;7.40;77.87;101108.36;2817333;83;21723;-61
2020/12/21 09:36:54;;;;;;;13.55;8.78;;;;;;;7.46;77.73;101109.82;2817885;84;21566;-62
2020/12/21 09:41:00;;;;;;;9.98;6.90;;;;;;;7.51;77.40;101111.73;2817382;83;21136;-61
2020/12/21 09:45:05;;;;;;;10.40;7.78;;;;;;;7.61;77.38;101113.39;2819045;84;21602;-61
2020/12/21 09:49:10;;;;;;;7.90;6.42;;;;;;;7.68;76.83;101107.67;2817528;83;21156;-61
2020/12/21 09:53:14;;;;;;;7.87;6.22;;;;;;;7.71;77.02;101101.36;2817765;83;21196;-63
2020/12/21 09:57:19;;;;;;;10.43;6.65;;;;;;;7.75;77.50;101107.31;2818503;83;21188;-63
2020/12/21 10:01:29;;;;;;;12.90;6.97;;;;;;;7.84;77.86;101108.97;2817833;83;21156;-62
2020/12/21 10:05:33;;;;;;;9.78;6.78;;;;;;;7.96;78.37;101106.56;2816696;84;21180;-62
2020/12/21 10:09:37;;;;;;;9.98;7.12;;;;;;;8.09;78.40;101109.35;2819451;84;21140;-63
2020/12/21 10:13:43;;;;;;;10.70;7.22;;;;;;;8.20;78.21;101107.40;2817445;83;21172;-61
2020/12/21 10:17:46;;;;;;;9.83;8.18;;;;;;;8.30;78.14;101104.59;2817159;84;21132;-62
2020/12/21 10:21:50;;;;;;;10.88;7.58;;;;;;;8.44;78.56;101102.45;2818628;83;21135;-62
2020/12/21 10:25:55;;;;;;;11.63;6.67;;;;;;;8.55;78.63;101100.50;2817264;84;21176;-64
2020/12/21 10:30:01;;;;;;;11.22;7.40;;;;;;;8.69;78.50;101092.57;2816017;84;21142;-62
2020/12/21 10:34:06;;;;;;;8.45;6.28;;;;;;;8.79;78.33;101080.05;2817942;83;21176;-62
2020/12/21 10:38:10;;;;;;;7.00;5.85;;;;;;;8.88;77.65;101088.79;2816698;84;21156;-62
2020/12/21 10:42:15;;;;;;;48.85;29.18;;;;;;;8.86;77.45;101086.70;2817351;84;21214;-63
2020/12/21 10:46:22;;;;;;;50.50;33.98;;;;;;;8.84;76.93;101087.25;2818459;83;21164;-64
2020/12/21 10:50:25;;;;;;;58.98;37.73;;;;;;;8.81;76.26;101088.77;2800327;83;21140;-61
2020/12/21 10:54:34;;;;;;;52.98;33.88;;;;;;;8.80;76.19;101087.06;2817591;84;21156;-61
2020/12/21 10:58:41;;;;;;;51.83;34.83;;;;;;;8.82;75.76;101087.81;2816421;83;21199;-61
2020/12/21 11:02:45;;;;;;;45.73;34.25;;;;;;;8.92;75.74;101077.48;2817247;84;21168;-62
2020/12/21 11:06:49;;;;;;;55.73;38.30;;;;;;;8.99;75.08;101078.34;2816740;83;21140;-64
2020/12/21 11:10:53;;;;;;;50.48;32.85;;;;;;;9.07;74.89;101075.70;2817413;83;21164;-64
2020/12/21 11:14:57;;;;;;;55.48;32.35;;;;;;;9.04;74.43;101080.71;2815663;83;21186;-63
2020/12/21 11:19:01;;;;;;;57.90;35.33;;;;;;;9.11;75.05;101079.86;2813942;84;21196;-63
2020/12/21 11:23:07;;;;;;;56.42;34.80;;;;;;;9.17;74.82;101072.83;2813521;83;21204;-64
2020/12/21 11:27:12;;;;;;;56.92;35.68;;;;;;;9.30;74.51;101082.18;2808975;83;21188;-62
2020/12/21 11:31:16;;;;;;;58.25;37.00;;;;;;;9.37;74.76;101078.20;2813847;83;21172;-62
2020/12/21 11:35:20;;;;;;;63.38;34.03;;;;;;;9.49;74.61;101079.21;2813337;84;21204;-63
2020/12/21 11:39:24;;;;;;;51.35;32.42;;;;;;;9.58;74.46;101071.95;2813438;84;21124;-63
2020/12/21 11:43:29;;;;;;;39.23;26.02;;;;;;;9.58;74.06;101061.83;2813367;84;21189;-64
2020/12/21 11:47:37;;;;;;;42.20;28.15;;;;;;;9.58;74.24;101055.19;2814775;83;21156;-62
2020/12/21 11:51:48;;;;;;;32.13;20.82;;;;;;;9.53;74.92;101055.48;2814549;83;21180;-62
2020/12/21 11:55:58;;;;;;;29.75;20.97;;;;;;;9.45;75.11;101064.44;2812042;84;21602;-61
2020/12/21 12:00:05;;;;;;;17.82;9.55;;;;;;;9.39;75.47;101051.53;2836397;83;21631;-62
2020/12/21 12:04:15;;;;;;;9.25;6.62;;;;;;;9.36;75.09;101053.06;2781788;85;21178;-62
2020/12/21 12:08:28;;;;;;;11.63;6.87;;;;;;;9.35;74.66;101058.00;2768482;85;21828;-61
2020/12/21 12:12:36;;;;;;;10.43;7.15;;;;;;;9.29;74.60;101054.80;2765709;84;21134;-62
2020/12/21 12:16:41;;;;;;;10.63;6.80;;;;;;;9.28;74.52;101050.44;2761377;84;21172;-63
2020/12/21 12:20:44;;;;;;;9.68;7.05;;;;;;;9.24;73.98;101048.07;2819006;84;21144;-63
2020/12/21 12:24:48;;;;;;;9.58;6.42;;;;;;;9.17;74.25;101046.77;2815966;83;21204;-62
2020/12/21 12:28:57;;;;;;;12.43;8.65;;;;;;;9.12;74.19;101039.09;2814027;83;21144;-63
2020/12/21 12:33:00;;;;;;;13.58;10.75;;;;;;;9.15;74.37;101042.88;2816793;83;21152;-62
2020/12/21 12:37:05;;;;;;;15.40;10.55;;;;;;;9.14;74.28;101037.19;2816325;84;21521;-61
2020/12/21 12:41:09;;;;;;;19.55;13.95;;;;;;;9.18;74.64;101028.08;2765096;85;21204;-62
2020/12/21 12:45:14;;;;;;;63.08;36.28;;;;;;;9.20;74.77;101024.84;2766900;86;21176;-62
2020/12/21 12:49:34;;;;;;;32.23;19.15;;;;;;;9.25;74.73;101024.09;2814954;84;21179;-63
2020/12/21 12:53:49;;;;;;;22.60;12.40;;;;;;;9.19;74.70;101027.13;2766589;85;21164;-63
2020/12/21 12:57:57;;;;;;;19.42;9.75;;;;;;;9.07;75.00;101033.23;2815494;83;21152;-63
2020/12/21 13:02:04;;;;;;;16.77;9.73;;;;;;;8.97;75.20;101036.45;2815405;84;21153;-64
2020/12/21 13:06:12;;;;;;;15.15;10.53;;;;;;;8.86;74.93;101028.34;2813337;83;21614;-62
2020/12/21 13:10:17;;;;;;;62.00;36.17;;;;;;;8.80;74.86;101026.05;2767500;84;21512;-62
2020/12/21 13:14:21;;;;;;;63.67;36.23;;;;;;;8.64;74.91;101024.34;2770998;85;21164;-61
2020/12/21 13:18:26;;;;;;;78.90;45.90;;;;;;;8.64;74.96;101024.34;2767813;86;21172;-63
2020/12/21 13:22:30;;;;;;;67.65;42.45;;;;;;;8.50;75.04;101017.73;2764168;86;21164;-62
2020/12/21 13:26:34;;;;;;;46.02;28.73;;;;;;;8.42;75.17;101021.66;2758998;85;21174;-64
2020/12/21 13:30:40;;;;;;;23.75;16.52;;;;;;;8.36;75.37;101010.61;2798469;84;21141;-63
2020/12/21 13:34:43;;;;;;;36.88;25.10;;;;;;;8.32;75.23;101009.92;2784998;85;21161;-61
2020/12/21 13:38:47;;;;;;;59.03;36.68;;;;;;;8.20;75.58;101008.01;2767693;86;21203;-62
2020/12/21 13:42:52;;;;;;;24.75;18.35;;;;;;;8.13;75.94;101012.36;2768363;85;21639;-64
2020/12/21 13:46:56;;;;;;;16.15;9.33;;;;;;;8.11;76.02;101003.66;2797298;85;21622;-61
2020/12/21 13:51:00;;;;;;;14.23;10.65;;;;;;;8.07;76.00;101010.09;2767199;86;22308;-62
2020/12/21 13:55:04;;;;;;;20.32;12.15;;;;;;;7.99;75.88;101008.35;2744263;86;21164;-62
2020/12/21 13:59:09;;;;;;;38.03;24.00;;;;;;;7.95;75.74;101016.11;2767458;86;21613;-62
2020/12/21 14:03:17;;;;;;;35.70;26.60;;;;;;;7.90;75.76;101008.42;2768139;86;21178;-61
2020/12/21 14:07:20;;;;;;;39.08;27.15;;;;;;;7.83;75.77;101001.80;2768688;85;21640;-63
2020/12/21 14:11:24;;;;;;;23.87;17.17;;;;;;;7.75;75.85;101002.24;2795475;85;21157;-64
2020/12/21 14:15:32;;;;;;;25.23;14.43;;;;;;;7.69;75.83;101007.42;2765800;84;21622;-64
2020/12/21 14:19:35;;;;;;;24.17;17.40;;;;;;;7.68;75.64;101020.77;2768053;84;21180;-63
2020/12/21 14:23:39;;;;;;;26.17;16.02;;;;;;;7.65;75.63;101017.81;2767419;84;21167;-62
2020/12/21 14:27:42;;;;;;;22.52;17.52;;;;;;;7.68;75.45;101006.20;2769374;85;21683;-63
2020/12/21 14:31:45;;;;;;;34.73;22.20;;;;;;;7.65;75.12;101019.59;2815607;83;21172;-62
2020/12/21 14:35:50;;;;;;;36.60;26.57;;;;;;;7.61;75.08;101010.13;2767687;84;21149;-62
2020/12/21 14:39:53;;;;;;;127.80;76.10;;;;;;;7.61;75.12;101012.32;2793933;84;21156;-63
2020/12/21 14:43:59;;;;;;;156.78;101.60;;;;;;;7.53;74.74;101011.44;2766765;86;21156;-62
2020/12/21 14:48:03;;;;;;;46.37;28.45;;;;;;;7.42;74.60;101000.59;2817875;83;21176;-61
2020/12/21 14:52:06;;;;;;;48.00;31.20;;;;;;;7.24;74.68;101007.80;2789702;85;21144;-63
2020/12/21 14:56:09;;;;;;;34.40;18.25;;;;;;;7.04;75.01;101004.94;2832614;83;21112;-63
2020/12/21 15:00:13;;;;;;;22.62;14.28;;;;;;;6.85;75.25;101007.27;2766595;84;21180;-63
2020/12/21 15:04:19;;;;;;;25.97;18.48;;;;;;;6.74;75.31;101003.05;2768240;84;21605;-63
2020/12/21 15:08:23;;;;;;;41.05;26.15;;;;;;;6.67;75.47;100994.11;2771565;84;21136;-64
2020/12/21 15:12:48;;;;;;;41.23;26.50;;;;;;;6.61;75.76;100994.45;2818978;84;21140;-64
2020/12/21 15:16:52;;;;;;;39.70;27.93;;;;;;;6.56;75.77;100991.20;2750439;86;21141;-64
2020/12/21 15:20:55;;;;;;;38.67;23.22;;;;;;;6.47;75.82;100996.97;2706852;88;21159;-64
2020/12/21 15:24:59;;;;;;;107.63;71.37;;;;;;;6.34;76.14;100998.96;2722097;87;21188;-63
2020/12/21 15:29:03;;;;;;;67.05;38.73;;;;;;;6.18;76.51;100995.41;2721806;87;21626;-63
2020/12/21 15:33:08;;;;;;;32.20;20.88;;;;;;;6.14;76.65;100991.61;2745021;86;21157;-65
2020/12/21 15:37:15;;;;;;;32.50;18.17;;;;;;;6.09;76.26;100996.29;2766835;86;21165;-63
2020/12/21 15:41:18;;;;;;;48.17;26.45;;;;;;;5.97;76.30;101000.35;2767119;86;21209;-64
2020/12/21 15:45:24;;;;;;;81.45;45.43;;;;;;;5.88;76.53;101001.29;2766761;86;21172;-64
2020/12/21 15:49:34;;;;;;;155.37;93.67;;;;;;;5.79;76.80;100999.97;2767098;86;21666;-62
2020/12/21 15:53:37;;;;;;;102.58;59.05;;;;;;;5.74;76.98;100999.35;2766599;86;21148;-64
2020/12/21 15:57:41;;;;;;;85.35;48.13;;;;;;;5.68;77.29;100992.14;2766778;86;21186;-63
2020/12/21 16:01:47;;;;;;;72.95;39.13;;;;;;;5.58;77.42;100994.38;2766711;86;21184;-63
2020/12/21 16:05:50;;;;;;;32.20;22.70;;;;;;;5.44;77.49;100998.16;2766551;86;21172;-64
2020/12/21 16:09:54;;;;;;;60.65;27.85;;;;;;;5.28;77.76;100992.78;2766952;86;21149;-63
2020/12/21 16:13:57;;;;;;;59.13;29.48;;;;;;;5.15;78.56;100991.20;2766424;86;21140;-64
2020/12/21 16:18:02;;;;;;;51.48;28.98;;;;;;;5.10;79.13;100985.27;2766510;86;21515;-63
2020/12/21 16:22:06;;;;;;;101.70;56.83;;;;;;;5.07;79.49;100978.38;2766810;86;21193;-63
2020/12/21 16:26:09;;;;;;;156.00;84.00;;;;;;;4.98;79.62;100974.39;2766661;86;21156;-63
2020/12/21 16:30:13;;;;;;;195.25;115.80;;;;;;;4.92;79.84;100969.42;2766660;86;21224;-63
2020/12/21 16:34:17;;;;;;;488.45;362.05;;;;;;;4.94;79.97;100971.52;2766907;86;21196;-63
2020/12/21 16:38:20;;;;;;;188.35;127.65;;;;;;;4.98;79.94;100974.39;2766644;86;21168;-63
2020/12/21 16:42:23;;;;;;;110.78;78.62;;;;;;;4.99;80.09;100968.19;2766724;86;21221;-64
2020/12/21 16:46:27;;;;;;;79.37;56.55;;;;;;;5.00;80.08;100957.16;2767078;86;21171;-63
2020/12/21 16:50:30;;;;;;;35.00;24.23;;;;;;;4.95;80.10;100946.86;2767123;86;21201;-63
2020/12/21 16:54:34;;;;;;;36.30;24.27;;;;;;;4.86;80.14;100942.01;2766957;86;21164;-63
2020/12/21 16:58:43;;;;;;;38.30;25.90;;;;;;;4.77;80.33;100946.41;2767179;86;21169;-64
2020/12/21 17:02:45;;;;;;;50.33;29.95;;;;;;;4.62;80.48;100947.52;2767056;86;21153;-63
2020/12/21 17:06:50;;;;;;;36.48;24.35;;;;;;;4.48;81.03;100948.60;2766663;86;21170;-63
2020/12/21 17:10:54;;;;;;;34.38;22.65;;;;;;;4.41;81.47;100934.84;2766904;85;21183;-64
2020/12/21 17:14:59;;;;;;;35.70;22.60;;;;;;;4.38;81.56;100929.28;2766905;84;21158;-62
2020/12/21 17:19:03;;;;;;;32.88;20.88;;;;;;;4.39;81.42;100932.30;2766688;85;21166;-63
2020/12/21 17:23:07;;;;;;;50.52;26.50;;;;;;;4.39;81.12;100934.06;2767016;86;21163;-63
2020/12/21 17:27:10;;;;;;;35.35;23.62;;;;;;;4.30;81.17;100928.75;2766938;86;21181;-64
2020/12/21 17:31:14;;;;;;;35.17;22.98;;;;;;;4.13;81.11;100918.55;2766578;86;21143;-64
2020/12/21 17:35:18;;;;;;;39.20;23.75;;;;;;;4.03;81.65;100911.96;2767036;86;21165;-64
2020/12/21 17:39:21;;;;;;;32.15;22.55;;;;;;;3.91;82.13;100915.13;2756285;85;21201;-66
2020/12/21 17:43:25;;;;;;;51.75;34.33;;;;;;;3.88;82.65;100919.21;2748995;85;21165;-64
2020/12/21 17:47:28;;;;;;;35.08;24.80;;;;;;;3.95;82.92;100912.30;2749907;85;21215;-64
2020/12/21 17:51:33;;;;;;;49.30;38.67;;;;;;;4.04;82.58;100918.09;2744494;85;21182;-66
2020/12/21 17:55:36;;;;;;;37.83;26.40;;;;;;;4.13;82.66;100914.59;2722801;85;22254;-68
2020/12/21 17:59:44;;;;;;;29.37;17.23;;;;;;;4.23;82.33;100919.44;2757098;85;21208;-66
2020/12/21 18:03:46;;;;;;;30.27;18.83;;;;;;;4.26;82.22;100915.34;2746977;85;21197;-65
2020/12/21 18:07:50;;;;;;;29.85;21.10;;;;;;;4.27;82.04;100915.73;2740588;85;21201;-67
2020/12/21 18:11:53;;;;;;;33.60;26.35;;;;;;;4.26;81.98;100909.62;2743375;85;21192;-65
2020/12/21 18:15:58;;;;;;;56.85;39.40;;;;;;;4.23;81.83;100903.18;2750643;85;21170;-66
2020/12/21 18:20:04;;;;;;;59.45;40.10;;;;;;;4.21;81.49;100908.11;2708185;87;21479;-66
2020/12/21 18:24:07;;;;;;;51.42;37.30;;;;;;;4.14;81.71;100903.14;2721786;85;21145;-66
2020/12/21 18:28:13;;;;;;;51.05;32.63;;;;;;;4.10;81.74;100894.95;2708194;86;21142;-68
2020/12/21 18:32:20;;;;;;;44.05;28.67;;;;;;;4.05;81.74;100897.42;2716556;86;21176;-66
2020/12/21 18:36:34;;;;;;;49.23;28.75;;;;;;;3.97;82.09;100886.76;3092073;75;22880;-65
2020/12/21 18:40:38;;;;;;;53.95;29.25;;;;;;;3.85;82.27;100889.95;3037250;76;21132;-69
2020/12/21 18:44:41;;;;;;;87.67;48.02;;;;;;;3.85;82.25;100883.38;3028722;76;21522;-66